Renaissance, California
Current Conditions -  °F | °C
As of 12:20 AM on Monday 24 Nov 2014 (Local Time) from KGOO Reporting Station
Clear Clear  
Wind Chill: 45°   Ceiling: Unl
Heat Index: 45°   Visibility: 10mi
Dew Point: 32°   Wind: 0mph
Humidity: 61%   Direction: NA
Pressure: 30.32"   Gusts: NA
Location:  39.3135°N, 121.257°W
Report Text: KGOO 240820Z AUTO 00000KT 10SM CLR 07/00 A3032 RMK AO1
Loading
Personal Weather Stations






























Interactive Weather Map New forecast layout! Learn more

10-Day Weather Forecast

Advertisements
Track Severe Weather on mobile